KVPZ/VPZ METAR and TAF weather

Enter ICAO airport designator
Station Type Date Time Source
KVPZ METAR 2020/01/29 12:56 UTC NOAA

KVPZ 291256Z AUTO 10004KT 10SM OVC019 M01/M04 A3018 RMK AO2 SLP229 T10111044


Station Type Date Time Source
KVPZ Decoded METAR 2020/01/29 12:56 UTC NOAA

VALPARAISO PORTER CO MUNI, IN, United States (KVPZ) 41-27N 087-00W 231M
Jan 29, 2020 - 07:56 AM EST / 2020.01.29 1256 UTC
Wind: from the E (100 degrees) at 5 MPH (4 KT):0
Visibility: 10 mile(s):0
Sky conditions: overcast
Temperature: 30.0 F (-1.1 C)
Windchill: 24 F (-4 C):1
Dew Point: 24.1 F (-4.4 C)
Relative Humidity: 78%
Pressure (altimeter): 30.18 in. Hg (1022 hPa)
ob: KVPZ 291256Z AUTO 10004KT 10SM OVC019 M01/M04 A3018 RMK AO2 SLP229 T10111044
cycle: 13

Station Type Date Time Source
KVPZ TAF UTC NOAA

Error!

Example: see airport list